Anchorage/Merrill Field, Alaska
Current Conditions -  °F | °C
As of 4:53 AM on Friday 31 Oct 2014 (Local Time) from PAMR Reporting Station
Clear Clear  
Wind Chill: 16°   Ceiling: Unl
Heat Index: 16°   Visibility: 10mi
Dew Point:   Wind: 0mph
Humidity: 74%   Direction: NA
Pressure: 29.3"   Gusts: NA
Location:  61.21°N, 149.85°W
Report Text: PAMR 311253Z 00000KT 10SM CLR M09/M13 A2930 RMK AO2 SLP926 T10891128 $
Loading
Personal Weather Stations






























Interactive Weather Map
Tropical Storm Tracking
New forecast layout! Learn more

10-Day Weather Forecast

Advertisements
Track Severe Weather on mobile